Terminal Aerodrome Forecast
Issued by NWS

Home | Current Version | Previous Version | Text Only | Print | Product List | Glossary On
Versions: 1 2 3 4 5 6 7 8 9 10 11 12 13 14 15 16 17 18 19
000
FTUS42 KTBW 290206 CCA
TAFLAL
TAF COR
KLAL 290206Z 2900/2924 32007KT P6SM SCT250
     FM290400 34004KT P6SM SCT250
     FM290900 01004KT P6SM SCT250
     FM291400 02011KT P6SM SCT250
      AMD NOT SKED 2903/2912=

USA.gov is the U.S. government's official web portal to all federal, state and local government web resources and services.